Ivanhoe Post Office, Australia
Current Conditions -  °F | °C
As of 1:00 PM on Friday 19 Dec 2014 (Local Time) from YGTH Reporting Station
Clear Clear  
Wind Chill: 72°   Ceiling: Unl
Heat Index: 72°   Visibility: 6mi
Dew Point: 34°   Wind: 7mph
Humidity: 25%   Direction: 240°WSW
Pressure: 30"   Gusts: NA
Location:  32.9°S, 144.28°E
Report Text: YGTH 190200Z AUTO 24006KT 170V290 9999 // NCD 22/01 Q1016
Loading
Personal Weather Stations






























Interactive Weather Map New forecast layout! Learn more

10-Day Weather Forecast

Advertisements
Track Severe Weather on mobile